Time;durP1;ratioP1;P1;durP2;ratioP2;P2;SDS_P1;SDS_P2;PMS_P1;PMS_P2;Temp;Humidity;BMP_temperature;BMP_pressure;BME280_temperature;BME280_humidity;BME280_pressure;Samples;Min_cycle;Max_cycle;Signal;HPM_P1;HPM_P2
2022/09/25 00:01:26;;;;;;;3.03;1.23;;;;;;;5.90;84.06;100349.88;10490394;28;20044;-73
2022/09/25 00:06:29;;;;;;;1.35;1.10;;;;;;;5.90;83.99;100349.88;10490338;28;20049;-73
2022/09/25 00:11:32;;;;;;;1.65;1.20;;;;;;;5.92;84.36;100355.91;10487088;28;20044;-73
2022/09/25 00:16:38;;;;;;;1.52;0.85;;;;;;;5.90;84.66;100340.88;10518326;28;20043;-73
2022/09/25 00:21:41;;;;;;;1.58;1.00;;;;;;;5.92;84.34;100341.47;10496773;28;20052;-74
2022/09/25 00:26:43;;;;;;;2.45;1.10;;;;;;;5.85;84.14;100336.16;10484188;28;20044;-74
2022/09/25 00:31:49;;;;;;;2.42;1.10;;;;;;;5.91;84.25;100331.66;10489797;28;20048;-74
2022/09/25 00:36:52;;;;;;;1.50;0.90;;;;;;;5.95;84.89;100325.41;10491539;28;20060;-73
2022/09/25 00:41:54;;;;;;;1.23;0.88;;;;;;;5.95;84.29;100335.50;10477293;28;20037;-73
2022/09/25 00:46:56;;;;;;;2.00;1.05;;;;;;;5.98;84.26;100332.25;10475402;28;20050;-74
2022/09/25 00:52:11;;;;;;;1.27;0.90;;;;;;;6.01;83.92;100327.09;10476919;28;20049;-73
2022/09/25 00:57:17;;;;;;;1.52;0.88;;;;;;;5.93;84.01;100334.94;10478628;28;20048;-73
2022/09/25 01:02:52;;;;;;;1.17;0.90;;;;;;;5.86;84.72;100324.19;10485855;28;20045;-73
2022/09/25 01:07:56;;;;;;;1.95;1.08;;;;;;;5.88;84.54;100324.75;10485844;28;20161;-73
2022/09/25 01:12:59;;;;;;;1.50;0.90;;;;;;;5.85;84.70;100319.00;10486869;28;20047;-73
2022/09/25 01:18:10;;;;;;;1.55;0.90;;;;;;;5.88;85.05;100318.50;10486937;28;20052;-73
2022/09/25 01:23:25;;;;;;;1.50;1.08;;;;;;;5.88;84.86;100310.31;10487095;28;20037;-73
2022/09/25 01:28:37;;;;;;;1.75;1.10;;;;;;;5.93;85.01;100310.41;10485956;28;20045;-73
2022/09/25 01:33:46;;;;;;;2.15;0.98;;;;;;;5.91;85.41;100313.41;10484358;28;20423;-73
2022/09/25 01:39:21;;;;;;;1.95;0.90;;;;;;;5.95;84.97;100314.53;10482333;28;20037;-73
2022/09/25 01:44:42;;;;;;;1.45;1.00;;;;;;;6.10;84.83;100313.84;10482713;28;20045;-73
2022/09/25 01:49:52;;;;;;;1.38;0.90;;;;;;;6.04;84.79;100306.69;10484300;28;20052;-73
2022/09/25 01:55:03;;;;;;;1.98;1.17;;;;;;;6.08;85.41;100310.56;10480769;28;20537;-73
2022/09/25 02:00:18;;;;;;;1.63;1.17;;;;;;;6.07;85.57;100303.44;10467502;28;20557;-73
2022/09/25 02:05:25;;;;;;;1.60;1.05;;;;;;;6.12;85.68;100294.50;10474543;28;20043;-73
2022/09/25 02:10:43;;;;;;;2.25;1.30;;;;;;;6.14;85.42;100293.16;10483966;28;20039;-73
2022/09/25 02:15:48;;;;;;;;;;;;;;;6.15;85.39;100296.72;10462574;28;20048;-73
2022/09/25 02:21:04;;;;;;;1.58;0.88;;;;;;;6.20;85.84;100288.56;10483230;28;19927;-73
2022/09/25 02:26:10;;;;;;;1.52;0.90;;;;;;;6.19;86.23;100290.47;10452712;28;20495;-73
2022/09/25 02:31:15;;;;;;;1.55;1.00;;;;;;;6.24;86.69;100285.06;10475730;28;20408;-73
2022/09/25 02:36:19;;;;;;;2.45;0.95;;;;;;;6.24;86.37;100282.31;10477476;28;20045;-73
2022/09/25 02:41:35;;;;;;;2.28;1.35;;;;;;;6.31;86.18;100282.13;10480053;28;20037;-73
2022/09/25 02:46:54;;;;;;;1.88;1.00;;;;;;;6.38;86.29;100265.53;10482659;28;20037;-73
2022/09/25 02:52:11;;;;;;;1.90;1.10;;;;;;;6.38;86.97;100260.09;10499731;28;20049;-73
2022/09/25 02:57:51;;;;;;;1.75;1.30;;;;;;;6.41;87.35;100254.09;10466424;28;20053;-73
2022/09/25 03:02:58;;;;;;;2.55;1.25;;;;;;;6.45;86.74;100244.34;10485511;28;20045;-73
2022/09/25 03:13:25;;;;;;;2.00;0.88;;;;;;;6.53;87.60;100235.66;10482263;28;20040;-73
2022/09/25 03:18:28;;;;;;;1.63;1.23;;;;;;;6.56;87.98;100238.66;10483694;28;20055;-73
2022/09/25 03:23:31;;;;;;;1.70;0.85;;;;;;;6.51;87.60;100233.19;10474446;28;20048;-72
2022/09/25 03:28:33;;;;;;;1.85;0.90;;;;;;;6.49;88.10;100234.53;10484125;28;20041;-73
2022/09/25 03:33:40;;;;;;;1.67;0.93;;;;;;;6.49;87.79;100231.81;10490323;28;20041;-72
2022/09/25 03:38:42;;;;;;;1.15;0.80;;;;;;;6.47;87.83;100232.09;10488694;28;20051;-72
2022/09/25 03:43:47;;;;;;;1.73;0.93;;;;;;;6.46;88.89;100225.00;10488056;28;20041;-73
2022/09/25 03:48:51;;;;;;;2.03;1.05;;;;;;;6.43;88.26;100219.25;10465941;28;20061;-73
2022/09/25 03:53:53;;;;;;;1.80;1.02;;;;;;;6.37;88.42;100226.56;10488006;28;20053;-72
2022/09/25 03:58:56;;;;;;;3.13;1.27;;;;;;;6.37;89.52;100217.56;10490969;28;20045;-73
2022/09/25 04:03:59;;;;;;;1.23;0.68;;;;;;;6.35;89.17;100218.66;10487648;28;20047;-72
2022/09/25 04:09:02;;;;;;;1.80;1.02;;;;;;;6.35;89.42;100226.00;10484457;28;20049;-73
2022/09/25 04:14:04;;;;;;;3.05;1.30;;;;;;;6.44;89.38;100223.63;10483975;28;20045;-73
2022/09/25 04:19:07;;;;;;;2.10;1.08;;;;;;;6.41;89.69;100215.94;10485573;28;20129;-73
2022/09/25 04:29:31;;;;;;;2.72;1.08;;;;;;;6.41;90.33;100219.50;10485532;28;20411;-74
2022/09/25 04:34:33;;;;;;;1.75;0.95;;;;;;;6.36;91.49;100222.19;10488227;28;20071;-73
2022/09/25 04:39:35;;;;;;;1.67;0.68;;;;;;;6.34;91.15;100211.56;10486839;28;21201;-73
2022/09/25 04:44:38;;;;;;;2.50;0.95;;;;;;;6.33;91.91;100207.19;10481528;28;20538;-72
2022/09/25 04:49:40;;;;;;;1.77;1.30;;;;;;;6.31;92.12;100203.09;10488683;28;20071;-73
2022/09/25 04:54:43;;;;;;;1.58;1.20;;;;;;;6.26;91.83;100203.91;10486663;28;20044;-73
2022/09/25 04:59:45;;;;;;;1.27;0.98;;;;;;;6.26;92.26;100209.34;10464751;28;20044;-73
2022/09/25 05:04:47;;;;;;;1.17;0.88;;;;;;;6.23;92.23;100203.59;10486701;28;20388;-72
2022/09/25 05:09:49;;;;;;;2.03;1.10;;;;;;;6.25;92.49;100206.88;10486765;28;20036;-72
2022/09/25 05:14:51;;;;;;;1.20;0.90;;;;;;;6.21;92.59;100203.84;10484453;28;20036;-72
2022/09/25 05:19:53;;;;;;;1.98;1.20;;;;;;;6.20;93.69;100202.22;10487252;28;20171;-72
2022/09/25 05:24:56;;;;;;;0.90;0.75;;;;;;;6.23;93.40;100204.41;10486404;28;20045;-73
2022/09/25 05:29:58;;;;;;;1.25;0.90;;;;;;;6.25;93.54;100201.44;10486445;28;20419;-73
2022/09/25 05:35:00;;;;;;;0.77;0.60;;;;;;;6.25;94.07;100196.81;10480565;28;20040;-73
2022/09/25 05:40:02;;;;;;;1.65;0.93;;;;;;;6.31;93.76;100193.03;10483907;28;20423;-72
2022/09/25 05:45:05;;;;;;;1.23;1.00;;;;;;;6.32;93.66;100194.66;10479121;28;20044;-72
2022/09/25 05:50:09;;;;;;;0.98;0.88;;;;;;;6.34;94.16;100189.75;10485261;28;20311;-72
2022/09/25 05:55:11;;;;;;;1.50;0.90;;;;;;;6.40;94.38;100178.88;10483763;28;20052;-72
2022/09/25 06:00:14;;;;;;;1.20;0.73;;;;;;;6.44;94.45;100180.00;10486059;28;20392;-72
2022/09/25 06:05:16;;;;;;;2.20;1.35;;;;;;;6.43;94.74;100175.66;10482467;28;20045;-72
2022/09/25 06:10:18;;;;;;;1.52;0.95;;;;;;;6.51;94.80;100177.84;10483907;28;20049;-72
2022/09/25 06:15:22;;;;;;;1.45;1.30;;;;;;;6.51;94.98;100175.94;10482982;28;20040;-72
2022/09/25 06:20:24;;;;;;;3.90;0.90;;;;;;;6.51;94.76;100178.66;10466864;28;20045;-73
2022/09/25 06:25:29;;;;;;;1.33;1.17;;;;;;;6.57;95.28;100182.22;10479726;28;20552;-73
2022/09/25 06:30:34;;;;;;;1.33;0.90;;;;;;;6.62;94.71;100176.81;10481097;28;20044;-73
2022/09/25 06:35:43;;;;;;;1.27;0.90;;;;;;;6.70;95.54;100168.13;10471591;28;20041;-72
2022/09/25 06:40:45;;;;;;;0.47;0.47;;;;;;;6.78;96.15;100173.06;10483040;28;20043;-73
2022/09/25 06:45:49;;;;;;;1.58;0.95;;;;;;;6.80;95.13;100170.91;10482295;28;20049;-73
2022/09/25 06:50:53;;;;;;;0.52;0.40;;;;;;;6.85;96.06;100170.91;10480097;28;20088;-73
2022/09/25 06:55:57;;;;;;;0.65;0.65;;;;;;;6.90;95.79;100173.63;10492735;28;20044;-73
2022/09/25 07:00:59;;;;;;;0.77;0.63;;;;;;;6.98;95.89;100172.31;10481950;28;20040;-73
2022/09/25 07:06:03;;;;;;;1.20;0.88;;;;;;;7.05;96.47;100166.59;10486031;28;20052;-73
2022/09/25 07:11:06;;;;;;;0.93;0.70;;;;;;;7.04;96.35;100171.22;10493092;28;20037;-73
2022/09/25 07:16:13;;;;;;;0.90;0.80;;;;;;;7.06;96.45;100168.22;10485627;28;20468;-73
2022/09/25 07:21:17;;;;;;;0.47;0.45;;;;;;;7.08;96.51;100183.22;10489006;28;20045;-73
2022/09/25 07:26:22;;;;;;;0.52;0.52;;;;;;;7.09;96.24;100173.97;10479705;28;20041;-73
2022/09/25 07:31:26;;;;;;;0.15;0.10;;;;;;;7.14;95.50;100170.44;10461480;28;20492;-73
2022/09/25 07:36:28;;;;;;;1.05;0.20;;;;;;;7.14;95.57;100170.44;10491737;28;20044;-73
2022/09/25 07:41:31;;;;;;;0.20;0.20;;;;;;;7.18;95.32;100177.00;10487946;28;20044;-73
2022/09/25 07:46:33;;;;;;;0.22;0.20;;;;;;;7.20;95.83;100175.63;10492266;28;20415;-73
2022/09/25 07:51:35;;;;;;;1.17;0.38;;;;;;;7.20;96.01;100175.63;10490413;28;20052;-73
2022/09/25 07:56:37;;;;;;;0.30;0.30;;;;;;;7.18;95.87;100177.00;10486814;28;20068;-74
2022/09/25 08:01:39;;;;;;;0.73;0.68;;;;;;;7.21;94.83;100176.44;10490934;28;20044;-73
2022/09/25 08:06:41;;;;;;;0.20;0.20;;;;;;;7.25;95.37;100185.72;10489516;28;20063;-73
2022/09/25 08:11:43;;;;;;;0.47;0.30;;;;;;;7.30;95.27;100180.28;10482292;28;20044;-73
2022/09/25 08:16:46;;;;;;;0.40;0.32;;;;;;;7.34;94.30;100184.13;10490773;28;20488;-73
2022/09/25 08:21:49;;;;;;;1.65;0.40;;;;;;;7.37;94.66;100177.28;10491143;28;20052;-73
2022/09/25 08:26:51;;;;;;;2.10;0.50;;;;;;;7.40;95.08;100180.28;10484514;28;20037;-73
2022/09/25 08:31:53;;;;;;;0.40;0.30;;;;;;;7.40;94.68;100174.00;10479794;28;20045;-73
2022/09/25 08:36:56;;;;;;;0.75;0.55;;;;;;;7.38;94.40;100187.94;10449199;28;20503;-73
2022/09/25 08:41:59;;;;;;;0.13;0.13;;;;;;;7.39;94.62;100189.56;10471915;28;20037;-73
2022/09/25 08:52:26;;;;;;;0.30;0.28;;;;;;;7.40;94.91;100176.75;10484410;28;20052;-73
2022/09/25 08:57:42;;;;;;;0.75;0.22;;;;;;;7.35;94.47;100182.22;10473396;28;20087;-73
2022/09/25 09:02:57;;;;;;;0.10;0.10;;;;;;;7.34;93.89;100181.38;10475334;28;20048;-73
2022/09/25 09:08:06;;;;;;;0.50;0.22;;;;;;;7.36;94.66;100164.75;10488292;28;20314;-72
2022/09/25 09:13:22;;;;;;;0.85;0.35;;;;;;;7.36;94.98;100184.66;10481674;28;20487;-74
2022/09/25 09:18:26;;;;;;;0.10;0.10;;;;;;;7.32;94.18;100182.75;10484423;28;20052;-72
2022/09/25 09:23:46;;;;;;;0.15;0.15;;;;;;;7.30;94.15;100172.09;10500304;28;20191;-73
2022/09/25 09:28:58;;;;;;;0.10;0.10;;;;;;;7.34;95.34;100175.09;10485849;28;20165;-73
2022/09/25 09:34:18;;;;;;;0.30;0.20;;;;;;;7.38;95.41;100177.00;10463909;28;20049;-72
2022/09/25 09:39:35;;;;;;;0.17;0.17;;;;;;;7.40;95.47;100171.28;10488871;28;20067;-72
2022/09/25 09:45:09;;;;;;;0.32;0.32;;;;;;;7.37;95.07;100177.28;10500485;28;20507;-73
2022/09/25 09:50:35;;;;;;;0.28;0.28;;;;;;;7.41;95.62;100181.09;10509449;28;20139;-72
2022/09/25 09:55:44;;;;;;;0.43;0.40;;;;;;;7.46;96.30;100173.75;10524105;28;20033;-74
2022/09/25 10:00:49;;;;;;;0.10;0.10;;;;;;;7.49;95.95;100173.22;10483206;28;20396;-72
2022/09/25 10:05:55;;;;;;;1.17;0.30;;;;;;;7.62;95.41;100176.47;10500314;28;20059;-74
2022/09/25 10:10:58;;;;;;;0.57;0.40;;;;;;;7.65;95.30;100176.78;10482410;28;20053;-74
2022/09/25 10:16:18;;;;;;;0.52;0.32;;;;;;;7.69;95.64;100179.78;10483826;28;20047;-74
2022/09/25 10:21:27;;;;;;;0.00;0.00;;;;;;;7.67;94.70;100187.41;10488258;28;20044;-73
2022/09/25 10:26:37;;;;;;;0.40;0.40;;;;;;;7.73;95.22;100175.41;10488042;28;20051;-72
2022/09/25 10:31:39;;;;;;;1.42;0.50;;;;;;;7.76;94.23;100186.59;10478573;28;20048;-72
2022/09/25 10:36:47;;;;;;;0.00;0.00;;;;;;;7.75;95.00;100190.41;10483075;28;20047;-73
2022/09/25 10:41:53;;;;;;;0.55;0.20;;;;;;;7.73;93.89;100195.34;10475867;28;20041;-73
2022/09/25 10:53:03;;;;;;;0.55;0.30;;;;;;;7.75;93.84;100186.88;10452126;28;20154;-73
2022/09/25 10:58:09;;;;;;;1.42;0.30;;;;;;;7.74;93.92;100201.59;10475929;28;20053;-73
2022/09/25 11:03:21;;;;;;;0.20;0.20;;;;;;;7.75;94.61;100197.78;10502524;28;20037;-73
2022/09/25 11:09:00;;;;;;;0.07;0.03;;;;;;;7.76;94.15;100196.69;10489941;28;20506;-74
2022/09/25 11:14:04;;;;;;;3.30;0.50;;;;;;;7.78;94.35;100203.50;10480514;28;20044;-73
2022/09/25 11:19:11;;;;;;;0.77;0.32;;;;;;;7.77;94.63;100218.25;10483136;28;20041;-72
2022/09/25 11:24:24;;;;;;;1.20;0.15;;;;;;;7.76;95.36;100205.69;10496053;28;20040;-72
2022/09/25 11:29:43;;;;;;;1.30;0.60;;;;;;;7.77;94.57;100203.78;10506019;28;20067;-73
2022/09/25 11:35:37;;;;;;;0.25;0.25;;;;;;;7.81;94.29;100207.63;10510756;28;20040;-73
2022/09/25 11:41:15;;;;;;;2.10;0.73;;;;;;;7.87;94.31;100201.06;10493721;28;20060;-72
2022/09/25 11:46:22;;;;;;;0.65;0.43;;;;;;;7.85;94.61;100222.38;10483488;28;20041;-73
2022/09/25 11:51:46;;;;;;;4.32;0.38;;;;;;;7.82;95.06;100212.00;10490023;28;20044;-74
2022/09/25 11:57:04;;;;;;;1.98;0.52;;;;;;;7.82;94.87;100207.38;10515377;28;20044;-73
2022/09/25 12:02:18;;;;;;;3.58;0.47;;;;;;;7.85;94.57;100206.00;10485495;28;20041;-74
2022/09/25 12:07:26;;;;;;;4.97;0.80;;;;;;;7.92;94.19;100212.00;10479467;28;20045;-74
2022/09/25 12:12:32;;;;;;;0.85;0.60;;;;;;;7.91;94.44;100213.06;10488465;28;20040;-74
2022/09/25 12:17:50;;;;;;;0.82;0.75;;;;;;;7.97;94.55;100213.88;10489733;28;20048;-73
2022/09/25 12:23:16;;;;;;;1.45;0.60;;;;;;;8.00;94.96;100213.38;10502107;28;20045;-74
2022/09/25 12:28:24;;;;;;;2.25;0.63;;;;;;;7.94;95.26;100217.16;10483232;28;20041;-75
2022/09/25 12:34:17;;;;;;;1.92;0.90;;;;;;;7.97;95.14;100228.38;10469950;28;20052;-74
2022/09/25 12:39:30;;;;;;;4.25;1.00;;;;;;;8.01;95.63;100218.56;10475101;28;20522;-77
2022/09/25 12:44:32;;;;;;;0.77;0.70;;;;;;;8.01;95.42;100226.75;10463885;28;20052;-74
2022/09/25 12:49:42;;;;;;;1.30;0.70;;;;;;;7.97;96.29;100222.91;10479953;28;20053;-72
2022/09/25 12:54:46;;;;;;;0.85;0.50;;;;;;;7.98;95.94;100224.53;10489381;28;20411;-74
2022/09/25 13:00:18;;;;;;;0.63;0.60;;;;;;;7.92;96.54;100231.09;10488436;28;20057;-74
2022/09/25 13:05:29;;;;;;;0.95;0.70;;;;;;;7.89;95.72;100228.13;10494424;28;20045;-75
2022/09/25 13:10:56;;;;;;;0.93;0.80;;;;;;;7.91;96.28;100228.66;10489635;28;20049;-75
2022/09/25 13:15:59;;;;;;;1.97;0.90;;;;;;;7.90;96.74;100230.56;10477602;28;20446;-75
2022/09/25 13:21:04;;;;;;;1.33;0.80;;;;;;;7.96;96.65;100236.84;10503171;28;20033;-76
2022/09/25 13:26:15;;;;;;;0.88;0.77;;;;;;;7.96;96.71;100240.38;10484771;28;20044;-75
2022/09/25 13:31:33;;;;;;;1.00;0.80;;;;;;;7.99;96.89;100237.13;10491103;28;20046;-75
2022/09/25 13:36:54;;;;;;;1.27;0.80;;;;;;;8.00;97.50;100235.22;10470695;28;20059;-74
2022/09/25 13:42:06;;;;;;;2.53;1.25;;;;;;;7.99;97.10;100234.41;10468014;28;20476;-72
2022/09/25 13:47:22;;;;;;;2.03;1.00;;;;;;;7.97;98.17;100233.00;10470109;28;20536;-75
2022/09/25 13:52:29;;;;;;;2.20;0.70;;;;;;;7.99;97.54;100226.22;10470215;28;20049;-72
2022/09/25 13:57:53;;;;;;;2.95;0.93;;;;;;;8.03;97.64;100223.75;10481433;28;20040;-73
2022/09/25 14:03:00;;;;;;;1.33;0.80;;;;;;;8.03;98.44;100230.03;10487008;28;20055;-76
2022/09/25 14:08:11;;;;;;;1.67;0.80;;;;;;;8.00;98.67;100233.31;10468655;28;20052;-75
2022/09/25 14:13:15;;;;;;;0.75;0.75;;;;;;;8.00;98.04;100227.03;10487597;28;20049;-77
2022/09/25 14:18:25;;;;;;;1.40;0.77;;;;;;;7.99;98.86;100225.38;10495234;28;20041;-79
2022/09/25 14:23:32;;;;;;;1.35;0.70;;;;;;;7.96;98.23;100221.25;10492069;28;20314;-76
2022/09/25 14:28:44;;;;;;;1.67;0.97;;;;;;;7.91;99.10;100221.28;10483169;28;20098;-73
2022/09/25 14:33:55;;;;;;;2.58;1.10;;;;;;;7.95;99.33;100225.09;10466254;28;20041;-77
2022/09/25 14:39:09;;;;;;;1.80;1.00;;;;;;;7.93;99.20;100227.28;10483897;28;20033;-77
2022/09/25 14:44:51;;;;;;;1.10;0.90;;;;;;;7.94;99.25;100231.66;10458278;28;20049;-74
2022/09/25 14:49:53;;;;;;;3.40;0.93;;;;;;;7.96;99.13;100226.72;10442826;28;20136;-78
2022/09/25 14:54:56;;;;;;;1.15;0.70;;;;;;;7.97;99.79;100228.38;10486153;28;20445;-77
2022/09/25 15:00:05;;;;;;;1.38;1.02;;;;;;;8.01;99.40;100229.47;10527234;28;20384;-76
2022/09/25 15:05:26;;;;;;;1.67;1.00;;;;;;;8.01;100.00;100229.47;10525631;28;20055;-74
2022/09/25 15:10:32;;;;;;;1.20;0.98;;;;;;;7.98;99.85;100227.28;10495602;28;20044;-75
2022/09/25 15:15:36;;;;;;;1.40;0.75;;;;;;;8.04;100.00;100226.19;10506434;28;20061;-82
2022/09/25 15:20:45;;;;;;;2.90;1.00;;;;;;;8.08;99.84;100229.19;10482647;28;20048;-82
2022/09/25 15:25:51;;;;;;;1.75;0.80;;;;;;;8.07;100.00;100233.84;10488750;28;20049;-82
2022/09/25 15:30:56;;;;;;;1.00;0.73;;;;;;;8.04;100.00;100234.41;10508766;28;20059;-82
2022/09/25 15:36:02;;;;;;;1.00;0.90;;;;;;;8.04;99.86;100228.09;10524315;28;20048;-82
2022/09/25 15:41:11;;;;;;;1.23;0.90;;;;;;;8.04;100.00;100228.94;10491372;28;20060;-82
2022/09/25 15:46:43;;;;;;;1.17;0.90;;;;;;;8.11;100.00;100234.09;10489589;28;20044;-82
2022/09/25 15:51:51;;;;;;;1.33;0.98;;;;;;;8.23;99.74;100239.28;10499167;28;20049;-82
2022/09/25 15:56:55;;;;;;;1.52;1.15;;;;;;;8.20;100.00;100237.13;10505703;28;20419;-82
2022/09/25 16:07:34;;;;;;;3.40;1.40;;;;;;;8.22;100.00;100232.19;10496916;28;20045;-81
2022/09/25 16:12:41;;;;;;;4.18;1.25;;;;;;;8.24;99.82;100238.19;10486350;28;20041;-81
2022/09/25 16:17:43;;;;;;;1.02;0.93;;;;;;;8.25;99.87;100235.19;10486280;28;20044;-80
2022/09/25 16:22:47;;;;;;;5.00;1.50;;;;;;;8.28;100.00;100240.09;10503278;28;20055;-83
2022/09/25 16:27:50;;;;;;;1.75;0.80;;;;;;;8.30;100.00;100246.09;10491122;28;20047;-79
2022/09/25 16:32:54;;;;;;;2.47;1.13;;;;;;;8.30;100.00;100248.00;10523610;28;20045;-80
2022/09/25 16:37:57;;;;;;;2.88;1.40;;;;;;;8.31;99.79;100238.72;10493090;28;20488;-82
2022/09/25 16:43:00;;;;;;;4.22;2.70;;;;;;;8.39;100.00;100247.22;10460234;28;20049;-82
2022/09/25 16:48:35;;;;;;;1.65;1.02;;;;;;;8.53;99.51;100255.69;10495331;28;20043;-81
2022/09/25 16:53:38;;;;;;;1.40;1.00;;;;;;;8.68;99.82;100241.16;10492696;28;20049;-81
2022/09/25 16:58:41;;;;;;;2.33;1.02;;;;;;;8.61;100.00;100240.59;10495753;28;20033;-82
2022/09/25 17:03:50;;;;;;;2.25;1.50;;;;;;;8.70;99.49;100247.16;10479005;28;20403;-83
2022/09/25 17:08:52;;;;;;;3.63;1.27;;;;;;;8.56;100.00;100251.56;10475512;28;20055;-79
2022/09/25 17:13:59;;;;;;;2.67;0.82;;;;;;;8.54;100.00;100245.56;10488740;28;20442;-81
2022/09/25 17:19:07;;;;;;;1.30;0.98;;;;;;;8.57;99.62;100250.47;10488030;28;20037;-81
2022/09/25 17:24:11;;;;;;;3.10;1.10;;;;;;;8.53;99.18;100252.13;10482474;28;20037;-87
2022/09/25 17:29:13;;;;;;;2.00;1.15;;;;;;;8.68;99.06;100255.66;10472044;28;20486;-87
2022/09/25 17:34:17;;;;;;;1.88;1.35;;;;;;;8.61;99.41;100257.84;10456571;28;20041;-86
2022/09/25 17:39:19;;;;;;;1.55;1.40;;;;;;;8.54;98.67;100259.22;10495914;28;20055;-88
2022/09/25 17:44:22;;;;;;;1.73;1.40;;;;;;;8.53;98.56;100255.69;10497958;28;20040;-90
2022/09/25 17:49:25;;;;;;;2.60;1.50;;;;;;;8.49;98.56;100251.84;10498307;28;20059;-88
2022/09/25 17:54:30;;;;;;;1.92;1.42;;;;;;;8.49;98.89;100251.84;10480775;28;20055;-87
2022/09/25 17:59:32;;;;;;;2.17;1.48;;;;;;;8.51;99.46;100257.88;10473977;28;20037;-88
2022/09/25 18:04:35;;;;;;;2.20;1.70;;;;;;;8.45;99.58;100253.50;10467252;28;20504;-87
2022/09/25 18:09:37;;;;;;;1.92;1.50;;;;;;;8.43;99.61;100242.03;10488913;28;20025;-86
2022/09/25 18:14:39;;;;;;;3.50;1.77;;;;;;;8.42;98.87;100241.19;10490206;28;20049;-88
2022/09/25 18:25:03;;;;;;;3.58;1.75;;;;;;;8.51;99.75;100240.66;10476404;28;20043;-80
2022/09/25 18:30:06;;;;;;;4.55;1.70;;;;;;;8.46;99.46;100244.19;10475671;28;20041;-94
2022/09/25 18:35:09;;;;;;;2.08;1.70;;;;;;;8.46;99.33;100236.00;10491397;28;20045;-93
2022/09/25 18:40:13;;;;;;;2.05;1.50;;;;;;;8.53;100.00;100246.66;10481455;28;20483;-89
2022/09/25 18:45:15;;;;;;;2.08;1.48;;;;;;;8.52;99.76;100242.28;10481551;28;20695;-85
2022/09/25 18:50:18;;;;;;;2.38;1.80;;;;;;;8.54;99.99;100240.91;10479336;28;20045;-86
2022/09/25 18:55:20;;;;;;;3.25;1.95;;;;;;;8.60;99.50;100234.31;10480975;28;20438;-85
2022/09/25 19:00:22;;;;;;;3.20;1.92;;;;;;;8.63;99.61;100222.81;10490957;28;20525;-85
2022/09/25 19:05:24;;;;;;;4.50;1.77;;;;;;;8.63;100.00;100241.97;10499191;28;20048;-84
2022/09/25 19:10:29;;;;;;;3.42;2.47;;;;;;;8.59;99.89;100237.34;10494659;28;20414;-85
2022/09/25 19:15:33;;;;;;;3.83;2.05;;;;;;;8.57;99.73;100243.09;10472894;28;20037;-83
2022/09/25 19:20:36;;;;;;;2.85;2.00;;;;;;;8.55;99.93;100226.13;10472269;28;20529;-83
2022/09/25 19:25:38;;;;;;;3.20;2.22;;;;;;;8.54;100.00;100232.72;10505323;28;20041;-86
2022/09/25 19:30:43;;;;;;;7.97;2.88;;;;;;;8.60;99.74;100228.03;10492136;28;20392;-83
2022/09/25 19:35:45;;;;;;;3.92;2.10;;;;;;;8.59;99.82;100219.00;10484622;28;20053;-85
2022/09/25 19:40:47;;;;;;;4.07;2.42;;;;;;;8.54;100.00;100221.78;10501522;28;20044;-85
2022/09/25 19:45:52;;;;;;;4.03;2.30;;;;;;;8.53;99.84;100220.13;10502072;28;20522;-83
2022/09/25 19:50:54;;;;;;;3.95;2.70;;;;;;;8.53;99.83;100222.06;10501806;28;20045;-84
2022/09/25 19:55:56;;;;;;;4.60;2.63;;;;;;;8.53;99.74;100224.78;10503924;28;20407;-85
2022/09/25 20:00:59;;;;;;;3.05;2.28;;;;;;;8.56;100.00;100226.97;10495095;28;20052;-87
2022/09/25 20:06:02;;;;;;;7.90;2.88;;;;;;;8.56;100.00;100221.50;10500757;28;20511;-85
2022/09/25 20:11:31;;;;;;;4.25;2.63;;;;;;;8.56;100.00;100226.97;10504599;28;20037;-85
2022/09/25 20:16:36;;;;;;;4.88;2.45;;;;;;;8.54;100.00;100221.78;10482507;28;20143;-88
2022/09/25 20:21:40;;;;;;;7.93;2.25;;;;;;;8.52;99.68;100223.97;10486705;28;20059;-82
2022/09/25 20:26:42;;;;;;;8.15;2.95;;;;;;;8.54;99.86;100218.22;10503327;28;20043;-79
2022/09/25 20:31:45;;;;;;;9.73;2.53;;;;;;;8.55;100.00;100222.59;10506079;28;20053;-82
2022/09/25 20:36:47;;;;;;;4.55;2.45;;;;;;;8.55;99.93;100217.94;10482139;28;20045;-75
2022/09/25 20:41:49;;;;;;;4.18;2.42;;;;;;;8.56;100.00;100216.84;10501476;28;20539;-73
2022/09/25 20:46:52;;;;;;;3.25;1.92;;;;;;;8.58;100.00;100222.03;10500803;28;20044;-78
2022/09/25 20:51:54;;;;;;;4.68;1.90;;;;;;;8.59;100.00;100223.66;10476061;28;20041;-90
2022/09/25 20:56:56;;;;;;;8.32;1.70;;;;;;;8.59;100.00;100224.47;10506161;28;20040;-84
2022/09/25 21:01:58;;;;;;;3.38;1.88;;;;;;;8.59;100.00;100229.13;10497686;28;20386;-83
2022/09/25 21:07:02;;;;;;;5.43;2.50;;;;;;;8.58;100.00;100236.53;10513678;28;20041;-81
2022/09/25 21:12:04;;;;;;;4.47;1.77;;;;;;;8.59;100.00;100229.94;10478322;28;20044;-85
2022/09/25 21:17:07;;;;;;;4.72;1.90;;;;;;;8.59;100.00;100234.59;10480566;28;20036;-73
2022/09/25 21:22:14;;;;;;;4.82;2.15;;;;;;;8.57;100.00;100232.16;10466909;28;20046;-75
2022/09/25 21:27:16;;;;;;;6.18;2.63;;;;;;;8.60;100.00;100239.78;10471886;28;20053;-74
2022/09/25 21:32:18;;;;;;;4.72;1.80;;;;;;;8.63;100.00;100244.69;10477803;28;20053;-73
2022/09/25 21:37:21;;;;;;;6.82;2.85;;;;;;;8.64;100.00;100249.06;10484219;28;20033;-73
2022/09/25 21:42:23;;;;;;;7.03;3.13;;;;;;;8.64;100.00;100246.34;10465712;28;20044;-74
2022/09/25 21:47:25;;;;;;;5.75;2.80;;;;;;;8.63;99.99;100241.97;10474484;28;20415;-74
2022/09/25 21:52:27;;;;;;;7.72;3.90;;;;;;;8.65;100.00;100239.78;10488869;28;20056;-75
2022/09/25 21:57:29;;;;;;;10.18;5.05;;;;;;;8.63;100.00;100238.41;10511960;28;20076;-74
2022/09/25 22:02:35;;;;;;;12.02;6.72;;;;;;;8.61;100.00;100244.16;10487871;28;20053;-75
2022/09/25 22:07:37;;;;;;;10.75;5.45;;;;;;;8.61;100.00;100244.16;10471054;28;20405;-75
2022/09/25 22:12:40;;;;;;;7.07;4.18;;;;;;;8.62;100.00;100248.53;10480795;28;20052;-75
2022/09/25 22:17:42;;;;;;;9.70;5.28;;;;;;;8.61;100.00;100249.63;10504564;28;20072;-75
2022/09/25 22:22:47;;;;;;;8.88;5.28;;;;;;;8.59;100.00;100240.88;10516864;28;20040;-76
2022/09/25 22:27:49;;;;;;;10.50;4.70;;;;;;;8.58;100.00;100244.72;10467641;28;20045;-77
2022/09/25 22:32:51;;;;;;;8.63;4.43;;;;;;;8.67;100.00;100248.50;10474048;28;20052;-74
2022/09/25 22:37:54;;;;;;;5.80;3.47;;;;;;;8.74;100.00;100254.53;10466014;28;20033;-74
2022/09/25 22:43:01;;;;;;;5.50;3.45;;;;;;;8.77;100.00;100247.66;10483239;28;20044;-75
2022/09/25 22:48:03;;;;;;;4.85;3.20;;;;;;;8.89;100.00;100241.91;10486477;28;20052;-74
2022/09/25 22:53:06;;;;;;;4.95;3.08;;;;;;;8.88;100.00;100249.28;10465846;28;20405;-74
2022/09/25 22:58:08;;;;;;;6.57;2.80;;;;;;;8.87;100.00;100249.56;10468517;28;20037;-75
2022/09/25 23:03:10;;;;;;;4.32;2.70;;;;;;;8.83;100.00;100254.75;10483296;28;20063;-74
2022/09/25 23:08:12;;;;;;;4.00;2.40;;;;;;;8.83;100.00;100241.06;10483674;28;20045;-75
2022/09/25 23:13:15;;;;;;;3.85;2.55;;;;;;;8.81;100.00;100240.53;10482998;28;20056;-74
2022/09/25 23:18:17;;;;;;;4.78;2.83;;;;;;;8.78;100.00;100238.38;10467875;28;20047;-74
2022/09/25 23:23:20;;;;;;;4.00;2.90;;;;;;;8.74;100.00;100243.59;10481858;28;20052;-75
2022/09/25 23:28:23;;;;;;;3.72;2.25;;;;;;;8.73;100.00;100244.69;10483533;28;20057;-75
2022/09/25 23:33:25;;;;;;;3.40;1.77;;;;;;;8.75;100.00;100238.94;10483078;28;20049;-76
2022/09/25 23:38:28;;;;;;;2.42;1.77;;;;;;;8.73;100.00;100249.34;10494651;28;20061;-74
2022/09/25 23:43:30;;;;;;;3.58;1.98;;;;;;;8.70;100.00;100237.03;10463239;28;20060;-77
2022/09/25 23:48:32;;;;;;;3.13;1.70;;;;;;;8.69;100.00;100238.13;10490045;28;20044;-72
2022/09/25 23:53:35;;;;;;;4.95;2.33;;;;;;;8.74;100.00;100248.22;10492825;28;20090;-73
2022/09/25 23:58:38;;;;;;;2.70;1.83;;;;;;;8.73;100.00;100246.59;10469641;28;20053;-72
